createdAt,value
2024-03-02T00:00:53.579Z,95.34
2024-03-02T00:03:21.604Z,95.33
2024-03-02T00:05:53.103Z,95.68
2024-03-02T00:08:29.058Z,95.44
2024-03-02T00:11:00.500Z,95.64
2024-03-02T00:13:27.705Z,95.47
2024-03-02T00:15:57.347Z,95.73
2024-03-02T00:18:29.158Z,95.65
2024-03-02T00:20:58.262Z,95.81
2024-03-02T00:23:28.017Z,95.89
2024-03-02T00:25:58.055Z,95.82
2024-03-02T00:28:26.796Z,95.91
2024-03-02T00:31:03.936Z,95.76
2024-03-02T00:33:36.011Z,95.82
2024-03-02T00:36:04.640Z,95.83
2024-03-02T00:38:31.955Z,96.11
2024-03-02T00:41:00.972Z,96.31
2024-03-02T00:43:45.788Z,96.34
2024-03-02T00:46:17.055Z,96.58
2024-03-02T00:48:49.756Z,96.79
2024-03-02T00:51:16.655Z,96.51
2024-03-02T00:53:43.639Z,96.74
2024-03-02T00:56:13.616Z,96.74
2024-03-02T00:58:40.878Z,96.90
2024-03-02T01:01:08.913Z,97.00
2024-03-02T01:03:35.865Z,97.17
2024-03-02T01:06:03.614Z,97.17
2024-03-02T01:08:30.414Z,97.52
2024-03-02T01:10:57.320Z,97.65
2024-03-02T01:13:24.974Z,97.21
2024-03-02T01:15:51.930Z,97.18
2024-03-02T01:18:19.159Z,97.52
2024-03-02T01:20:46.156Z,97.45
2024-03-02T01:23:13.264Z,97.54
2024-03-02T01:25:40.017Z,97.57
2024-03-02T01:28:07.163Z,97.77
2024-03-02T01:30:34.069Z,97.70
2024-03-02T01:33:01.630Z,98.17
2024-03-02T01:35:29.375Z,98.14
2024-03-02T01:37:56.171Z,98.20
2024-03-02T01:40:24.883Z,98.35
2024-03-02T01:42:51.972Z,98.49
2024-03-02T01:45:19.172Z,98.62
2024-03-02T01:47:46.041Z,98.64
2024-03-02T01:50:13.059Z,99.21
2024-03-02T01:52:39.936Z,99.27
2024-03-02T01:55:07.610Z,98.88
2024-03-02T01:57:35.477Z,99.12
2024-03-02T02:00:02.758Z,99.09
2024-03-02T02:02:38.606Z,98.81
2024-03-02T02:05:05.590Z,98.84
2024-03-02T02:07:32.763Z,99.08
2024-03-02T02:10:00.204Z,99.09
2024-03-02T02:12:27.180Z,98.95
2024-03-02T02:14:55.007Z,98.90
2024-03-02T02:17:21.903Z,98.97
2024-03-02T02:19:51.714Z,99.00
2024-03-02T02:22:18.530Z,98.44
2024-03-02T02:24:45.445Z,98.27
2024-03-02T02:27:15.901Z,98.06
2024-03-02T02:29:43.362Z,97.99
2024-03-02T02:32:10.435Z,97.86
2024-03-02T02:34:37.356Z,97.99
2024-03-02T02:37:04.181Z,98.10
2024-03-02T02:39:31.161Z,98.21
2024-03-02T02:41:58.072Z,98.59
2024-03-02T02:44:25.362Z,98.82
2024-03-02T02:46:58.400Z,98.86
2024-03-02T02:49:25.164Z,99.30
2024-03-02T02:51:52.047Z,99.21
2024-03-02T02:54:18.951Z,99.61
2024-03-02T02:56:46.295Z,99.57
2024-03-02T02:59:13.296Z,99.53
2024-03-02T03:01:41.248Z,99.65
2024-03-02T03:04:08.089Z,99.96
2024-03-02T03:06:34.982Z,100.00
2024-03-02T03:09:01.807Z,100.00
2024-03-02T03:11:28.641Z,100.00
2024-03-02T03:13:55.971Z,100.00
2024-03-02T03:16:22.887Z,100.00
2024-03-02T03:18:52.958Z,100.00
2024-03-02T03:21:22.939Z,100.00
2024-03-02T03:23:49.769Z,100.00
2024-03-02T03:26:19.593Z,100.00
2024-03-02T03:28:46.372Z,100.00
2024-03-02T03:31:13.651Z,100.00
2024-03-02T03:33:40.553Z,100.00
2024-03-02T03:36:07.616Z,100.00
2024-03-02T03:38:34.476Z,100.00
2024-03-02T03:41:01.284Z,100.00
2024-03-02T03:43:28.103Z,100.00
2024-03-02T03:45:54.997Z,100.00
2024-03-02T03:48:21.984Z,100.00
2024-03-02T03:50:54.782Z,100.00
2024-03-02T03:53:21.728Z,100.00
2024-03-02T03:55:50.536Z,100.00
2024-03-02T03:58:21.322Z,100.00
2024-03-02T04:00:49.562Z,100.00
2024-03-02T04:03:16.517Z,100.00
2024-03-02T04:05:43.431Z,100.00
2024-03-02T04:08:10.269Z,100.00
2024-03-02T04:10:37.165Z,100.00
2024-03-02T04:13:04.109Z,100.00
2024-03-02T04:15:31.059Z,100.00
2024-03-02T04:17:58.274Z,100.00
2024-03-02T04:20:25.300Z,100.00
2024-03-02T04:22:52.102Z,100.00
2024-03-02T04:25:18.902Z,100.00
2024-03-02T04:27:45.782Z,100.00
2024-03-02T04:30:13.087Z,100.00
2024-03-02T04:32:40.214Z,100.00
2024-03-02T04:35:09.680Z,100.00
2024-03-02T04:37:36.429Z,100.00
2024-03-02T04:40:03.391Z,100.00
2024-03-02T04:42:33.470Z,100.00
2024-03-02T04:45:00.323Z,100.00
2024-03-02T04:47:27.108Z,100.00
2024-03-02T04:49:53.932Z,100.00
2024-03-02T04:52:20.749Z,100.00
2024-03-02T04:55:06.235Z,100.00
2024-03-02T04:57:33.031Z,100.00
2024-03-02T05:00:00.025Z,100.00
2024-03-02T05:02:26.931Z,100.00
2024-03-02T05:04:53.712Z,100.00
2024-03-02T05:07:20.519Z,100.00
2024-03-02T05:09:50.434Z,100.00
2024-03-02T05:12:30.784Z,100.00
2024-03-02T05:15:04.022Z,100.00
2024-03-02T05:17:30.843Z,100.00
2024-03-02T05:20:05.286Z,100.00
2024-03-02T05:22:32.077Z,100.00
2024-03-02T05:25:01.262Z,100.00
2024-03-02T05:27:28.726Z,100.00
2024-03-02T05:29:55.539Z,100.00
2024-03-02T05:32:22.528Z,100.00
2024-03-02T05:34:49.353Z,100.00
2024-03-02T05:37:16.178Z,100.00
2024-03-02T05:39:44.652Z,100.00
2024-03-02T05:42:11.938Z,100.00
2024-03-02T05:44:38.894Z,100.00
2024-03-02T05:47:06.612Z,100.00
2024-03-02T05:49:33.391Z,100.00
2024-03-02T05:52:00.297Z,100.00
2024-03-02T05:54:27.124Z,100.00
2024-03-02T05:56:54.061Z,100.00
2024-03-02T05:59:20.887Z,100.00
2024-03-02T06:01:48.330Z,100.00
2024-03-02T06:04:15.495Z,100.00
2024-03-02T06:06:42.418Z,100.00
2024-03-02T06:09:09.596Z,100.00
2024-03-02T06:11:37.815Z,100.00
2024-03-02T06:14:08.501Z,100.00
2024-03-02T06:16:35.651Z,100.00
2024-03-02T06:19:02.638Z,100.00
2024-03-02T06:21:29.774Z,100.00
2024-03-02T06:23:58.344Z,100.00
2024-03-02T06:26:26.233Z,100.00
2024-03-02T06:28:53.513Z,100.00
2024-03-02T06:31:21.206Z,100.00
2024-03-02T06:33:48.047Z,100.00
2024-03-02T06:36:17.013Z,100.00
2024-03-02T06:38:44.062Z,100.00
2024-03-02T06:41:10.964Z,100.00
2024-03-02T06:43:37.771Z,100.00
2024-03-02T06:46:04.828Z,100.00
2024-03-02T06:48:31.824Z,100.00
2024-03-02T06:50:59.695Z,100.00
2024-03-02T06:53:26.848Z,100.00
2024-03-02T06:55:53.644Z,100.00
2024-03-02T06:58:20.824Z,100.00
2024-03-02T07:00:49.118Z,100.00
2024-03-02T07:03:15.992Z,100.00
2024-03-02T07:05:43.281Z,100.00
2024-03-02T07:08:10.292Z,100.00
2024-03-02T07:10:37.141Z,100.00
2024-03-02T07:13:04.122Z,100.00
2024-03-02T07:15:49.581Z,100.00
2024-03-02T07:18:16.697Z,100.00
2024-03-02T07:20:43.499Z,100.00
2024-03-02T07:23:10.602Z,100.00
2024-03-02T07:28:08.696Z,100.00
2024-03-02T07:30:36.227Z,100.00
2024-03-02T07:33:03.157Z,100.00
2024-03-02T07:35:32.823Z,100.00
2024-03-02T07:37:59.791Z,100.00
2024-03-02T07:40:27.231Z,100.00
2024-03-02T07:42:57.573Z,100.00
2024-03-02T07:45:25.485Z,100.00
2024-03-02T07:47:52.332Z,100.00
2024-03-02T07:50:19.174Z,100.00
2024-03-02T07:52:46.018Z,100.00
2024-03-02T07:55:12.812Z,100.00
2024-03-02T07:57:41.197Z,100.00
2024-03-02T08:00:08.530Z,100.00
2024-03-02T08:02:39.002Z,100.00
2024-03-02T08:05:05.834Z,100.00
2024-03-02T08:07:32.625Z,100.00
2024-03-02T08:10:02.597Z,100.00
2024-03-02T08:12:29.931Z,100.00
2024-03-02T08:14:57.269Z,100.00
2024-03-02T08:17:24.416Z,100.00
2024-03-02T08:19:51.243Z,100.00
2024-03-02T08:22:18.094Z,100.00
2024-03-02T08:24:44.923Z,100.00
2024-03-02T08:27:11.814Z,100.00
2024-03-02T08:29:38.605Z,100.00
2024-03-02T08:32:06.864Z,100.00
2024-03-02T08:34:33.766Z,100.00
2024-03-02T08:37:00.839Z,100.00
2024-03-02T08:39:27.740Z,100.00
2024-03-02T08:41:54.690Z,100.00
2024-03-02T08:44:21.549Z,100.00
2024-03-02T08:46:48.514Z,100.00
2024-03-02T08:49:15.319Z,100.00
2024-03-02T08:51:43.233Z,100.00
2024-03-02T08:54:14.623Z,100.00
2024-03-02T08:56:42.135Z,100.00
2024-03-02T08:59:08.963Z,100.00
2024-03-02T09:01:35.922Z,100.00
2024-03-02T09:04:03.739Z,100.00
2024-03-02T09:06:30.683Z,100.00
2024-03-02T09:08:57.622Z,100.00
2024-03-02T09:11:25.232Z,100.00
2024-03-02T09:13:52.139Z,100.00
2024-03-02T09:16:19.148Z,100.00
2024-03-02T09:18:46.931Z,100.00
2024-03-02T09:21:13.747Z,100.00
2024-03-02T09:23:41.629Z,100.00
2024-03-02T09:26:08.502Z,100.00
2024-03-02T09:28:35.887Z,100.00
2024-03-02T09:31:02.768Z,100.00
2024-03-02T09:33:29.617Z,100.00
2024-03-02T09:35:56.453Z,100.00
2024-03-02T09:38:23.333Z,100.00
2024-03-02T09:40:50.607Z,100.00
2024-03-02T09:43:18.160Z,100.00
2024-03-02T09:45:45.687Z,100.00
2024-03-02T09:48:12.506Z,100.00
2024-03-02T09:50:40.462Z,100.00
2024-03-02T09:53:09.032Z,100.00
2024-03-02T09:55:35.886Z,100.00
2024-03-02T09:58:03.459Z,98.32
2024-03-02T10:00:30.351Z,98.43
2024-03-02T10:03:00.785Z,98.10
2024-03-02T10:05:31.877Z,98.39
2024-03-02T10:08:03.453Z,98.36
2024-03-02T10:10:42.248Z,97.63
2024-03-02T10:13:10.134Z,97.29
2024-03-02T10:15:42.249Z,97.79
2024-03-02T10:18:13.515Z,97.75
2024-03-02T10:20:41.322Z,97.06
2024-03-02T10:23:12.690Z,96.57
2024-03-02T10:25:46.752Z,97.17
2024-03-02T10:28:19.560Z,96.86
2024-03-02T10:30:50.647Z,94.09
2024-03-02T10:33:18.714Z,94.81
2024-03-02T10:35:45.632Z,93.46
2024-03-02T10:38:12.964Z,91.97
2024-03-02T10:40:40.573Z,92.52
2024-03-02T10:43:09.208Z,92.62
2024-03-02T10:45:36.270Z,91.61
2024-03-02T10:48:04.052Z,90.44
2024-03-02T10:50:31.628Z,90.59
2024-03-02T10:52:58.644Z,90.63
2024-03-02T10:55:25.978Z,89.07
2024-03-02T10:57:58.585Z,89.29
2024-03-02T11:00:34.606Z,90.30
2024-03-02T11:03:11.570Z,90.41
2024-03-02T11:05:42.535Z,90.06
2024-03-02T11:08:14.021Z,89.51
2024-03-02T11:10:55.074Z,90.10
2024-03-02T11:13:25.741Z,88.70
2024-03-02T11:16:01.118Z,89.08
2024-03-02T11:18:28.537Z,89.34
2024-03-02T11:20:56.036Z,87.89
2024-03-02T11:23:33.298Z,87.91
2024-03-02T11:26:22.289Z,86.94
2024-03-02T11:28:49.722Z,86.38
2024-03-02T11:31:17.074Z,85.30
2024-03-02T11:33:44.913Z,86.69
2024-03-02T11:36:12.890Z,84.92
2024-03-02T11:38:40.239Z,84.59
2024-03-02T11:41:10.001Z,84.56
2024-03-02T11:43:41.152Z,83.65
2024-03-02T11:46:09.090Z,81.03
2024-03-02T11:48:38.100Z,82.08
2024-03-02T11:51:05.347Z,82.09
2024-03-02T11:53:36.214Z,81.54
2024-03-02T11:56:03.681Z,81.15
2024-03-02T11:58:31.480Z,80.73
2024-03-02T12:00:59.780Z,79.73
2024-03-02T12:03:27.414Z,78.74
2024-03-02T12:05:55.479Z,77.93
2024-03-02T12:08:22.983Z,76.06
2024-03-02T12:11:00.543Z,75.45
2024-03-02T12:13:27.807Z,75.58
2024-03-02T12:15:57.407Z,76.45
2024-03-02T12:18:24.419Z,73.49
2024-03-02T12:20:54.154Z,72.53
2024-03-02T12:23:21.422Z,72.00
2024-03-02T12:25:51.576Z,70.77
2024-03-02T12:28:19.046Z,68.56
2024-03-02T12:30:46.514Z,68.17
2024-03-02T12:33:13.736Z,66.81
2024-03-02T12:35:41.707Z,67.41
2024-03-02T12:38:08.548Z,66.45
2024-03-02T12:40:35.351Z,64.91
2024-03-02T12:43:02.983Z,65.50
2024-03-02T12:45:29.970Z,63.35
2024-03-02T12:47:56.822Z,63.03
2024-03-02T12:50:24.150Z,64.81
2024-03-02T12:52:57.094Z,63.71
2024-03-02T12:55:25.210Z,60.31
2024-03-02T12:57:53.651Z,59.43
2024-03-02T13:00:21.760Z,59.81
2024-03-02T13:02:49.849Z,60.01
2024-03-02T13:05:20.967Z,61.52
2024-03-02T13:07:51.741Z,62.53
2024-03-02T13:10:19.641Z,60.64
2024-03-02T13:12:47.094Z,62.67
2024-03-02T13:15:17.990Z,64.10
2024-03-02T13:17:48.752Z,65.14
2024-03-02T13:20:16.377Z,65.37
2024-03-02T13:22:43.589Z,64.47
2024-03-02T13:25:12.879Z,64.70
2024-03-02T13:30:07.661Z,62.65
2024-03-02T13:32:35.820Z,62.84
2024-03-02T13:35:04.383Z,61.22
2024-03-02T13:37:31.215Z,60.68
2024-03-02T13:39:58.123Z,60.46
2024-03-02T13:42:25.261Z,62.31
2024-03-02T13:44:52.766Z,63.01
2024-03-02T13:47:19.597Z,63.36
2024-03-02T13:49:48.466Z,64.13
2024-03-02T13:52:15.988Z,64.12
2024-03-02T13:54:44.009Z,64.09
2024-03-02T13:57:11.940Z,64.60
2024-03-02T13:59:39.574Z,65.82
2024-03-02T14:02:08.039Z,65.20
2024-03-02T14:04:35.050Z,65.32
2024-03-02T14:07:02.378Z,65.51
2024-03-02T14:09:30.430Z,66.39
2024-03-02T14:11:57.724Z,67.29
2024-03-02T14:14:24.655Z,67.88
2024-03-02T14:16:51.972Z,67.29
2024-03-02T14:19:18.824Z,67.73
2024-03-02T14:21:45.980Z,69.30
2024-03-02T14:24:13.087Z,69.50
2024-03-02T14:26:40.363Z,68.74
2024-03-02T14:29:07.620Z,68.65
2024-03-02T14:31:34.424Z,67.84
2024-03-02T14:34:01.700Z,67.91
2024-03-02T14:36:29.583Z,68.85
2024-03-02T14:38:56.993Z,68.93
2024-03-02T14:41:25.873Z,68.63
2024-03-02T14:43:53.350Z,69.46
2024-03-02T14:46:20.860Z,69.12
2024-03-02T14:48:48.207Z,67.89
2024-03-02T14:51:15.498Z,68.36
2024-03-02T14:53:43.245Z,67.43
2024-03-02T14:56:11.011Z,68.12
2024-03-02T14:58:38.220Z,67.39
2024-03-02T15:01:06.522Z,68.05
2024-03-02T15:03:34.018Z,67.61
2024-03-02T15:06:00.952Z,68.52
2024-03-02T15:08:28.021Z,68.85
2024-03-02T15:10:57.419Z,69.58
2024-03-02T15:13:24.502Z,68.03
2024-03-02T15:15:52.103Z,67.57
2024-03-02T15:18:19.147Z,66.80
2024-03-02T15:20:46.374Z,66.66
2024-03-02T15:23:13.191Z,67.83
2024-03-02T15:25:40.043Z,65.92
2024-03-02T15:28:07.406Z,66.41
2024-03-02T15:30:37.780Z,66.14
2024-03-02T15:33:05.030Z,67.60
2024-03-02T15:35:32.718Z,67.27
2024-03-02T15:37:59.557Z,67.38
2024-03-02T15:40:26.446Z,67.92
2024-03-02T15:42:53.248Z,69.36
2024-03-02T15:45:20.126Z,69.24
2024-03-02T15:47:47.021Z,69.09
2024-03-02T15:50:20.036Z,69.32
2024-03-02T15:52:48.204Z,69.85
2024-03-02T15:55:15.123Z,70.02
2024-03-02T15:57:46.727Z,70.86
2024-03-02T16:00:13.880Z,71.85
2024-03-02T16:02:40.706Z,70.89
2024-03-02T16:05:07.748Z,72.03
2024-03-02T16:07:35.502Z,71.78
2024-03-02T16:10:06.096Z,72.23
2024-03-02T16:12:33.079Z,72.24
2024-03-02T16:15:00.025Z,73.11
2024-03-02T16:17:27.972Z,73.21
2024-03-02T16:19:54.806Z,72.88
2024-03-02T16:22:23.461Z,72.49
2024-03-02T16:24:50.967Z,73.75
2024-03-02T16:27:19.456Z,74.50
2024-03-02T16:29:48.021Z,74.47
2024-03-02T16:32:14.846Z,75.74
2024-03-02T16:34:45.195Z,75.46
2024-03-02T16:37:12.102Z,75.11
2024-03-02T16:39:39.034Z,74.28
2024-03-02T16:42:05.831Z,74.89
2024-03-02T16:44:35.659Z,75.63
2024-03-02T16:47:02.514Z,74.59
2024-03-02T16:49:30.165Z,75.56
2024-03-02T16:51:57.012Z,75.63
2024-03-02T16:54:23.886Z,76.19
2024-03-02T16:56:50.709Z,76.60
2024-03-02T16:59:17.940Z,76.82
2024-03-02T17:01:44.798Z,77.39
2024-03-02T17:04:11.692Z,76.99
2024-03-02T17:06:38.542Z,77.16
2024-03-02T17:09:05.441Z,78.64
2024-03-02T17:11:32.400Z,78.49
2024-03-02T17:14:04.571Z,78.53
2024-03-02T17:16:31.961Z,78.41
2024-03-02T17:18:59.201Z,78.89
2024-03-02T17:21:26.581Z,79.29
2024-03-02T17:23:53.473Z,79.38
2024-03-02T17:26:20.240Z,79.22
2024-03-02T17:28:50.023Z,79.56
2024-03-02T17:31:16.920Z,79.20
2024-03-02T17:33:43.821Z,79.73
2024-03-02T17:36:10.705Z,79.76
2024-03-02T17:38:37.513Z,79.52
2024-03-02T17:41:06.314Z,80.00
2024-03-02T17:43:33.151Z,80.22
2024-03-02T17:46:00.924Z,80.52
2024-03-02T17:48:31.189Z,79.97
2024-03-02T17:50:58.004Z,80.41
2024-03-02T17:53:24.811Z,81.10
2024-03-02T17:55:51.763Z,81.38
2024-03-02T17:58:18.825Z,81.12
2024-03-02T18:00:46.333Z,81.23
2024-03-02T18:03:13.461Z,81.42
2024-03-02T18:05:40.272Z,81.50
2024-03-02T18:08:07.671Z,81.82
2024-03-02T18:10:35.130Z,82.34
2024-03-02T18:13:02.108Z,81.98
2024-03-02T18:15:29.067Z,81.85
2024-03-02T18:17:56.008Z,82.30
2024-03-02T18:20:22.805Z,82.39
2024-03-02T18:22:49.675Z,82.91
2024-03-02T18:25:16.634Z,83.07
2024-03-02T18:27:43.663Z,83.17
2024-03-02T18:30:13.847Z,83.50
2024-03-02T18:32:40.702Z,83.62
2024-03-02T18:35:09.878Z,83.89
2024-03-02T18:37:39.381Z,84.29
2024-03-02T18:40:07.046Z,84.78
2024-03-02T18:42:34.094Z,84.87
2024-03-02T18:45:04.876Z,85.27
2024-03-02T18:47:36.506Z,85.90
2024-03-02T18:50:06.799Z,85.74
2024-03-02T18:52:36.351Z,85.69
2024-03-02T18:55:04.651Z,85.77
2024-03-02T18:57:32.065Z,85.72
2024-03-02T18:59:59.012Z,86.30
2024-03-02T19:02:26.301Z,86.59
2024-03-02T19:04:53.389Z,86.85
2024-03-02T19:07:20.155Z,86.89
2024-03-02T19:09:47.773Z,87.49
2024-03-02T19:12:15.517Z,87.41
2024-03-02T19:14:42.279Z,87.30
2024-03-02T19:17:09.188Z,87.56
2024-03-02T19:19:36.040Z,87.67
2024-03-02T19:22:08.299Z,88.26
2024-03-02T19:24:39.368Z,88.04
2024-03-02T19:27:07.684Z,88.23
2024-03-02T19:29:34.821Z,88.32
2024-03-02T19:32:08.071Z,88.39
2024-03-02T19:34:39.077Z,88.48
2024-03-02T19:37:06.249Z,88.69
2024-03-02T19:39:37.813Z,88.67
2024-03-02T19:42:08.840Z,88.64
2024-03-02T19:44:35.760Z,88.79
2024-03-02T19:47:03.783Z,88.82
2024-03-02T19:49:30.748Z,88.78
2024-03-02T19:51:57.695Z,88.76
2024-03-02T19:54:24.630Z,89.02
2024-03-02T19:56:55.771Z,89.85
2024-03-02T19:59:23.409Z,89.78
2024-03-02T20:01:50.621Z,89.96
2024-03-02T20:04:18.125Z,89.88
2024-03-02T20:06:45.118Z,90.18
2024-03-02T20:09:13.442Z,90.25
2024-03-02T20:11:40.342Z,90.13
2024-03-02T20:14:07.187Z,90.33
2024-03-02T20:16:34.094Z,90.43
2024-03-02T20:19:01.351Z,90.67
2024-03-02T20:21:28.323Z,90.65
2024-03-02T20:23:55.661Z,90.48
2024-03-02T20:26:23.549Z,90.39
2024-03-02T20:28:54.556Z,90.68
2024-03-02T20:31:22.015Z,90.63
2024-03-02T20:33:49.107Z,90.60
2024-03-02T20:36:16.970Z,91.00
2024-03-02T20:38:44.123Z,90.56
2024-03-02T20:41:17.322Z,90.56
2024-03-02T20:43:44.856Z,90.88
2024-03-02T20:46:12.808Z,90.83
2024-03-02T20:48:40.686Z,90.94
2024-03-02T20:51:07.794Z,91.21
2024-03-02T20:53:34.838Z,91.22
2024-03-02T20:56:01.825Z,91.24
2024-03-02T20:58:28.756Z,91.23
2024-03-02T21:00:56.266Z,91.26
2024-03-02T21:03:24.092Z,91.19
2024-03-02T21:05:50.988Z,91.33
2024-03-02T21:08:20.866Z,91.65
2024-03-02T21:10:49.861Z,91.64
2024-03-02T21:13:17.816Z,91.55
2024-03-02T21:15:45.118Z,91.77
2024-03-02T21:18:12.176Z,91.78
2024-03-02T21:20:38.989Z,91.67
2024-03-02T21:23:05.907Z,92.19
2024-03-02T21:25:36.758Z,92.07
2024-03-02T21:28:04.430Z,92.48
2024-03-02T21:30:32.211Z,92.22
2024-03-02T21:32:59.528Z,92.43
2024-03-02T21:35:28.678Z,92.83
2024-03-02T21:37:56.961Z,92.58
2024-03-02T21:40:24.648Z,92.45
2024-03-02T21:42:52.258Z,92.34
2024-03-02T21:45:19.464Z,92.81
2024-03-02T21:47:47.255Z,92.79
2024-03-02T21:50:14.217Z,92.91
2024-03-02T21:52:40.996Z,92.94
2024-03-02T21:55:11.259Z,92.66
2024-03-02T21:57:38.657Z,92.96
2024-03-02T22:00:06.266Z,92.77
2024-03-02T22:02:39.353Z,93.36
2024-03-02T22:05:07.130Z,93.00
2024-03-02T22:07:34.526Z,92.96
2024-03-02T22:10:01.591Z,93.05
2024-03-02T22:12:28.432Z,93.11
2024-03-02T22:14:55.227Z,93.25
2024-03-02T22:17:24.007Z,93.15
2024-03-02T22:19:50.968Z,93.26
2024-03-02T22:22:18.031Z,93.47
2024-03-02T22:24:45.088Z,93.52
2024-03-02T22:27:12.146Z,93.59
2024-03-02T22:29:41.506Z,93.61
2024-03-02T22:32:08.610Z,93.78
2024-03-02T22:34:36.110Z,94.04
2024-03-02T22:37:03.613Z,93.37
2024-03-02T22:39:30.463Z,93.71
2024-03-02T22:41:57.273Z,93.51
2024-03-02T22:44:24.113Z,93.36
2024-03-02T22:46:56.798Z,93.50
2024-03-02T22:49:23.674Z,93.36
2024-03-02T22:51:53.859Z,93.44
2024-03-02T22:54:20.680Z,93.54
2024-03-02T22:56:48.626Z,93.52
2024-03-02T22:59:16.167Z,93.49
2024-03-02T23:01:46.212Z,93.45
2024-03-02T23:04:13.399Z,93.37
2024-03-02T23:06:41.075Z,93.47
2024-03-02T23:09:09.558Z,93.81
2024-03-02T23:11:37.491Z,93.81
2024-03-02T23:14:05.980Z,94.21
2024-03-02T23:16:35.662Z,94.13
2024-03-02T23:19:03.218Z,93.81
2024-03-02T23:21:31.362Z,94.18
2024-03-02T23:23:59.033Z,94.24
2024-03-02T23:26:26.433Z,93.84
2024-03-02T23:28:53.488Z,93.77
2024-03-02T23:31:21.313Z,93.76
2024-03-02T23:33:49.735Z,93.96
2024-03-02T23:36:16.573Z,93.74
2024-03-02T23:38:43.393Z,93.85
2024-03-02T23:41:11.667Z,94.37
2024-03-02T23:43:39.070Z,94.09
2024-03-02T23:46:07.799Z,93.81
2024-03-02T23:48:35.822Z,94.03
2024-03-02T23:51:03.394Z,93.99
2024-03-02T23:53:31.599Z,94.23
2024-03-02T23:56:08.859Z,94.21
2024-03-02T23:58:35.712Z,94.43
